createdAt,value
2023-06-06T00:01:02.912Z,25.20
2023-06-06T00:03:36.282Z,25.20
2023-06-06T00:06:09.753Z,25.30
2023-06-06T00:08:45.168Z,25.30
2023-06-06T00:11:18.709Z,25.20
2023-06-06T00:13:51.976Z,25.20
2023-06-06T00:16:28.995Z,25.20
2023-06-06T00:19:02.564Z,25.20
2023-06-06T00:21:37.215Z,25.20
2023-06-06T00:24:12.711Z,25.20
2023-06-06T00:26:46.122Z,25.20
2023-06-06T00:29:19.477Z,25.20
2023-06-06T00:31:52.873Z,25.20
2023-06-06T00:34:26.538Z,25.20
2023-06-06T00:36:59.876Z,25.10
2023-06-06T00:39:34.555Z,25.10
2023-06-06T00:42:08.666Z,25.10
2023-06-06T00:44:41.992Z,25.10
2023-06-06T00:47:15.932Z,25.10
2023-06-06T00:49:51.341Z,25.10
2023-06-06T00:52:25.718Z,25.10
2023-06-06T00:55:00.882Z,25.10
2023-06-06T00:57:34.288Z,25.10
2023-06-06T01:00:09.532Z,25.10
2023-06-06T01:02:45.064Z,25.10
2023-06-06T01:05:20.365Z,25.10
2023-06-06T01:07:55.050Z,25.10
2023-06-06T01:10:31.591Z,25.00
2023-06-06T01:13:12.901Z,25.00
2023-06-06T01:15:54.067Z,25.00
2023-06-06T01:18:27.867Z,25.00
2023-06-06T01:21:01.237Z,25.00
2023-06-06T01:23:37.960Z,25.00
2023-06-06T01:26:13.719Z,25.00
2023-06-06T01:28:47.062Z,25.00
2023-06-06T01:31:24.347Z,25.00
2023-06-06T01:34:03.462Z,25.00
2023-06-06T01:36:47.626Z,25.00
2023-06-06T01:39:23.577Z,25.00
2023-06-06T01:41:59.773Z,25.00
2023-06-06T01:44:34.767Z,25.00
2023-06-06T01:47:09.495Z,25.00
2023-06-06T01:49:46.422Z,25.00
2023-06-06T01:52:19.718Z,25.00
2023-06-06T01:54:56.428Z,25.00
2023-06-06T01:57:29.759Z,25.00
2023-06-06T02:00:05.507Z,25.00
2023-06-06T02:02:47.665Z,25.00
2023-06-06T02:05:21.878Z,25.00
2023-06-06T02:07:55.189Z,25.00
2023-06-06T02:10:32.034Z,25.00
2023-06-06T02:13:05.540Z,24.90
2023-06-06T02:15:38.746Z,25.00
2023-06-06T02:18:12.397Z,25.00
2023-06-06T02:20:45.826Z,24.90
2023-06-06T02:23:20.793Z,24.90
2023-06-06T02:25:56.368Z,25.00
2023-06-06T02:28:31.311Z,25.00
2023-06-06T02:31:04.883Z,25.00
2023-06-06T02:33:39.251Z,24.90
2023-06-06T02:36:15.996Z,24.90
2023-06-06T02:38:49.325Z,25.00
2023-06-06T02:41:24.332Z,24.90
2023-06-06T02:43:57.903Z,24.90
2023-06-06T02:46:31.995Z,24.90
2023-06-06T02:49:07.179Z,24.90
2023-06-06T02:51:41.501Z,24.90
2023-06-06T02:54:14.793Z,24.90
2023-06-06T02:56:49.513Z,24.90
2023-06-06T02:59:23.059Z,24.90
2023-06-06T03:01:56.404Z,24.90
2023-06-06T03:04:29.786Z,24.90
2023-06-06T03:07:03.224Z,24.90
2023-06-06T03:09:36.500Z,24.90
2023-06-06T03:12:12.576Z,24.90
2023-06-06T03:14:56.463Z,24.90
2023-06-06T03:17:34.445Z,24.90
2023-06-06T03:20:09.094Z,24.90
2023-06-06T03:22:44.616Z,24.90
2023-06-06T03:25:20.805Z,24.90
2023-06-06T03:27:55.850Z,24.90
2023-06-06T03:30:29.592Z,24.90
2023-06-06T03:33:04.779Z,24.90
2023-06-06T03:35:38.157Z,24.90
2023-06-06T03:38:12.109Z,24.90
2023-06-06T03:40:45.440Z,24.90
2023-06-06T03:43:20.280Z,24.90
2023-06-06T03:45:53.598Z,24.90
2023-06-06T03:48:27.043Z,24.90
2023-06-06T03:51:00.261Z,24.90
2023-06-06T03:53:33.698Z,24.90
2023-06-06T03:56:07.878Z,24.90
2023-06-06T03:58:43.191Z,24.90
2023-06-06T04:01:16.631Z,24.90
2023-06-06T04:03:50.085Z,24.90
2023-06-06T04:06:23.435Z,24.90
2023-06-06T04:08:59.306Z,24.90
2023-06-06T04:11:33.093Z,24.90
2023-06-06T04:14:07.764Z,24.90
2023-06-06T04:16:41.547Z,24.90
2023-06-06T04:19:14.667Z,24.90
2023-06-06T04:21:48.277Z,24.90
2023-06-06T04:24:21.575Z,24.90
2023-06-06T04:26:54.919Z,24.90
2023-06-06T04:29:29.806Z,24.90
2023-06-06T04:32:03.155Z,24.90
2023-06-06T04:34:41.124Z,24.90
2023-06-06T04:37:18.700Z,24.90
2023-06-06T04:39:54.511Z,24.90
2023-06-06T04:42:33.904Z,24.90
2023-06-06T04:45:10.450Z,24.90
2023-06-06T04:50:33.917Z,24.90
2023-06-06T04:53:07.210Z,24.90
2023-06-06T04:55:40.638Z,24.90
2023-06-06T04:58:15.308Z,24.90
2023-06-06T05:00:48.758Z,24.90
2023-06-06T05:03:22.091Z,24.90
2023-06-06T05:05:57.682Z,24.90
2023-06-06T05:08:32.985Z,25.00
2023-06-06T05:11:06.425Z,24.90
2023-06-06T05:13:39.694Z,25.00
2023-06-06T05:16:13.046Z,25.00
2023-06-06T05:18:46.375Z,25.00
2023-06-06T05:21:21.542Z,25.00
2023-06-06T05:23:56.036Z,25.00
2023-06-06T05:26:30.261Z,25.00
2023-06-06T05:29:04.508Z,25.00
2023-06-06T05:31:37.677Z,25.00
2023-06-06T05:34:11.061Z,25.00
2023-06-06T05:36:45.949Z,25.00
2023-06-06T05:39:20.640Z,25.00
2023-06-06T05:41:56.092Z,25.00
2023-06-06T05:44:29.923Z,25.00
2023-06-06T05:47:03.146Z,25.00
2023-06-06T05:49:36.393Z,25.00
2023-06-06T05:52:11.151Z,25.00
2023-06-06T05:54:50.207Z,25.00
2023-06-06T05:57:43.753Z,25.00
2023-06-06T06:00:18.693Z,25.00
2023-06-06T06:02:52.976Z,25.00
2023-06-06T06:05:29.202Z,25.10
2023-06-06T06:08:05.598Z,25.10
2023-06-06T06:10:40.264Z,25.10
2023-06-06T06:13:13.561Z,25.10
2023-06-06T06:15:46.859Z,25.10
2023-06-06T06:18:20.143Z,25.10
2023-06-06T06:20:53.464Z,25.10
2023-06-06T06:23:28.858Z,25.10
2023-06-06T06:26:02.235Z,25.10
2023-06-06T06:28:35.641Z,25.10
2023-06-06T06:31:09.411Z,25.10
2023-06-06T06:33:42.800Z,25.10
2023-06-06T06:36:16.056Z,25.20
2023-06-06T06:38:50.750Z,25.10
2023-06-06T06:41:24.045Z,25.10
2023-06-06T06:43:57.305Z,25.10
2023-06-06T06:46:30.682Z,25.20
2023-06-06T06:49:04.194Z,25.20
2023-06-06T06:51:38.433Z,25.20
2023-06-06T06:54:14.206Z,25.20
2023-06-06T06:56:47.583Z,25.20
2023-06-06T06:59:21.524Z,25.20
2023-06-06T07:01:54.818Z,25.20
2023-06-06T07:04:29.519Z,25.20
2023-06-06T07:07:02.819Z,25.20
2023-06-06T07:09:37.497Z,25.20
2023-06-06T07:12:12.039Z,25.20
2023-06-06T07:14:45.521Z,25.30
2023-06-06T07:17:18.811Z,25.30
2023-06-06T07:19:52.073Z,25.30
2023-06-06T07:22:25.376Z,25.30
2023-06-06T07:25:00.029Z,25.30
2023-06-06T07:27:36.420Z,25.30
2023-06-06T07:30:13.638Z,25.40
2023-06-06T07:32:48.816Z,25.40
2023-06-06T07:35:22.221Z,25.40
2023-06-06T07:37:55.623Z,25.50
2023-06-06T07:40:30.577Z,25.50
2023-06-06T07:43:03.897Z,25.50
2023-06-06T07:45:37.249Z,25.50
2023-06-06T07:48:10.671Z,25.50
2023-06-06T07:50:44.105Z,25.50
2023-06-06T07:53:18.144Z,25.50
2023-06-06T07:55:52.874Z,25.50
2023-06-06T07:58:28.724Z,25.50
2023-06-06T08:01:02.039Z,25.50
2023-06-06T08:03:35.881Z,25.50
2023-06-06T08:06:09.728Z,25.50
2023-06-06T08:08:43.572Z,25.50
2023-06-06T08:11:18.564Z,25.50
2023-06-06T08:13:51.925Z,25.50
2023-06-06T08:16:25.266Z,25.50
2023-06-06T08:18:58.903Z,25.50
2023-06-06T08:21:32.179Z,25.50
2023-06-06T08:24:05.725Z,25.50
2023-06-06T08:26:40.504Z,25.50
2023-06-06T08:29:15.664Z,25.50
2023-06-06T08:31:48.942Z,25.50
2023-06-06T08:34:22.352Z,25.50
2023-06-06T08:36:55.983Z,25.50
2023-06-06T08:39:29.327Z,25.50
2023-06-06T08:42:05.780Z,25.40
2023-06-06T08:44:39.972Z,25.40
2023-06-06T08:47:14.561Z,25.40
2023-06-06T08:49:47.821Z,25.40
2023-06-06T08:52:22.611Z,25.40
2023-06-06T08:54:56.473Z,25.40
2023-06-06T08:57:30.927Z,25.30
2023-06-06T09:00:12.517Z,25.30
2023-06-06T09:02:46.731Z,25.30
2023-06-06T09:05:22.103Z,25.20
2023-06-06T09:07:55.604Z,25.30
2023-06-06T09:10:28.953Z,25.30
2023-06-06T09:13:03.587Z,25.20
2023-06-06T09:15:36.922Z,25.20
2023-06-06T09:18:10.341Z,25.20
2023-06-06T09:20:44.575Z,25.20
2023-06-06T09:23:17.998Z,25.30
2023-06-06T09:25:51.328Z,25.20
2023-06-06T09:28:37.821Z,25.20
2023-06-06T09:31:28.766Z,25.20
2023-06-06T09:34:02.831Z,25.20
2023-06-06T09:36:36.799Z,25.30
2023-06-06T09:39:13.168Z,25.30
2023-06-06T09:41:48.118Z,25.30
2023-06-06T09:44:24.708Z,25.30
2023-06-06T09:47:00.880Z,25.30
2023-06-06T09:49:35.028Z,25.30
2023-06-06T09:52:14.949Z,25.30
2023-06-06T09:54:48.349Z,25.30
2023-06-06T09:57:22.838Z,25.40
2023-06-06T10:00:02.241Z,25.40
2023-06-06T10:02:47.710Z,25.40
2023-06-06T10:05:29.278Z,25.40
2023-06-06T10:08:03.660Z,25.40
2023-06-06T10:10:37.021Z,25.40
2023-06-06T10:13:13.917Z,25.40
2023-06-06T10:15:49.247Z,25.40
2023-06-06T10:18:23.579Z,25.40
2023-06-06T10:20:58.690Z,25.40
2023-06-06T10:23:32.335Z,25.40
2023-06-06T10:26:09.697Z,25.40
2023-06-06T10:28:50.490Z,25.40
2023-06-06T10:31:33.960Z,25.40
2023-06-06T10:34:11.076Z,25.40
2023-06-06T10:36:46.707Z,25.40
2023-06-06T10:39:21.562Z,25.40
2023-06-06T10:41:56.652Z,25.40
2023-06-06T10:44:37.041Z,25.40
2023-06-06T10:47:34.592Z,25.50
2023-06-06T10:50:25.026Z,25.40
2023-06-06T10:53:00.780Z,25.50
2023-06-06T10:55:46.386Z,25.50
2023-06-06T10:58:25.780Z,25.50
2023-06-06T11:01:01.590Z,25.50
2023-06-06T11:03:39.061Z,25.40
2023-06-06T11:06:14.735Z,25.50
2023-06-06T11:08:51.315Z,25.40
2023-06-06T11:11:27.854Z,25.40
2023-06-06T11:14:06.434Z,25.50
2023-06-06T11:17:13.721Z,25.50
2023-06-06T11:19:48.497Z,25.50
2023-06-06T11:22:23.538Z,25.50
2023-06-06T11:24:58.193Z,25.50
2023-06-06T11:27:33.333Z,25.50
2023-06-06T11:30:09.556Z,25.50
2023-06-06T11:32:42.988Z,25.50
2023-06-06T11:35:22.265Z,25.50
2023-06-06T11:37:56.493Z,25.50
2023-06-06T11:40:31.417Z,25.50
2023-06-06T11:43:05.065Z,25.50
2023-06-06T11:45:38.959Z,25.50
2023-06-06T11:48:24.023Z,25.50
2023-06-06T11:50:58.807Z,25.50
2023-06-06T11:53:34.082Z,25.50
2023-06-06T11:56:07.921Z,25.50
2023-06-06T11:58:42.260Z,25.50
2023-06-06T12:01:16.390Z,25.50
2023-06-06T12:03:51.691Z,25.50
2023-06-06T12:06:28.975Z,25.50
2023-06-06T12:09:03.029Z,25.50
2023-06-06T12:11:36.318Z,25.50
2023-06-06T12:14:13.813Z,25.50
2023-06-06T12:16:48.438Z,25.50
2023-06-06T12:19:22.656Z,25.50
2023-06-06T12:21:57.378Z,25.50
2023-06-06T12:24:31.912Z,25.50
2023-06-06T12:27:06.123Z,25.50
2023-06-06T12:29:52.045Z,25.50
2023-06-06T12:32:27.866Z,25.50
2023-06-06T12:35:03.349Z,25.50
2023-06-06T12:37:42.466Z,25.50
2023-06-06T12:40:17.383Z,25.40
2023-06-06T12:42:54.433Z,25.50
2023-06-06T12:45:29.028Z,25.50
2023-06-06T12:48:02.632Z,25.40
2023-06-06T12:50:35.933Z,25.40
2023-06-06T12:53:12.834Z,25.40
2023-06-06T12:55:46.456Z,25.40
2023-06-06T12:58:19.807Z,25.40
2023-06-06T13:00:53.188Z,25.40
2023-06-06T13:03:26.536Z,25.40
2023-06-06T13:05:59.874Z,25.40
2023-06-06T13:08:38.828Z,25.40
2023-06-06T13:11:12.806Z,25.40
2023-06-06T13:13:46.448Z,25.40
2023-06-06T13:16:19.970Z,25.40
2023-06-06T13:18:54.924Z,25.50
2023-06-06T13:21:28.356Z,25.50
2023-06-06T13:24:03.320Z,25.50
2023-06-06T13:26:36.720Z,25.50
2023-06-06T13:29:10.908Z,25.50
2023-06-06T13:31:44.626Z,25.50
2023-06-06T13:34:17.905Z,25.50
2023-06-06T13:36:51.553Z,25.50
2023-06-06T13:39:27.417Z,25.50
2023-06-06T13:42:01.104Z,25.50
2023-06-06T13:44:34.382Z,25.50
2023-06-06T13:47:08.009Z,25.50
2023-06-06T13:49:41.309Z,25.50
2023-06-06T13:52:14.552Z,25.50
2023-06-06T13:54:53.271Z,25.50
2023-06-06T13:57:30.329Z,25.50
2023-06-06T14:00:06.786Z,25.60
2023-06-06T14:02:40.979Z,25.60
2023-06-06T14:05:14.321Z,25.60
2023-06-06T14:07:47.599Z,25.60
2023-06-06T14:10:22.329Z,25.60
2023-06-06T14:12:55.698Z,25.60
2023-06-06T14:15:29.058Z,25.60
2023-06-06T14:18:02.397Z,25.60
2023-06-06T14:20:49.542Z,25.60
2023-06-06T14:23:22.891Z,25.60
2023-06-06T14:25:57.525Z,25.60
2023-06-06T14:28:31.583Z,25.60
2023-06-06T14:31:05.249Z,25.60
2023-06-06T14:33:38.580Z,25.60
2023-06-06T14:36:12.521Z,25.70
2023-06-06T14:38:45.853Z,25.70
2023-06-06T14:41:20.537Z,25.70
2023-06-06T14:43:57.269Z,25.70
2023-06-06T14:46:30.657Z,25.70
2023-06-06T14:49:03.971Z,25.70
2023-06-06T14:51:37.537Z,25.70
2023-06-06T14:54:10.844Z,25.70
2023-06-06T14:56:45.504Z,25.70
2023-06-06T14:59:18.906Z,25.70
2023-06-06T15:01:53.491Z,25.70
2023-06-06T15:04:28.569Z,25.70
2023-06-06T15:07:03.019Z,25.70
2023-06-06T15:09:37.640Z,25.70
2023-06-06T15:12:13.959Z,25.70
2023-06-06T15:14:47.602Z,25.60
2023-06-06T15:17:21.206Z,25.70
2023-06-06T15:19:54.504Z,25.60
2023-06-06T15:22:27.803Z,25.60
2023-06-06T15:25:01.091Z,25.60
2023-06-06T15:27:35.954Z,25.60
2023-06-06T15:30:11.283Z,25.60
2023-06-06T15:32:44.624Z,25.60
2023-06-06T15:35:17.999Z,25.60
2023-06-06T15:37:51.748Z,25.50
2023-06-06T15:40:25.012Z,25.50
2023-06-06T15:42:59.800Z,25.50
2023-06-06T15:45:33.282Z,25.50
2023-06-06T15:48:07.576Z,25.50
2023-06-06T15:50:41.013Z,25.50
2023-06-06T15:53:14.435Z,25.50
2023-06-06T15:55:48.044Z,25.50
2023-06-06T15:58:22.638Z,25.40
2023-06-06T16:00:55.911Z,25.50
2023-06-06T16:03:29.530Z,25.50
2023-06-06T16:06:02.805Z,25.50
2023-06-06T16:08:36.125Z,25.50
2023-06-06T16:11:09.725Z,25.50
2023-06-06T16:13:44.822Z,25.40
2023-06-06T16:16:18.246Z,25.40
2023-06-06T16:18:51.592Z,25.40
2023-06-06T16:21:24.898Z,25.40
2023-06-06T16:23:58.260Z,25.40
2023-06-06T16:26:31.584Z,25.40
2023-06-06T16:29:06.539Z,25.40
2023-06-06T16:31:39.863Z,25.40
2023-06-06T16:34:13.391Z,25.40
2023-06-06T16:36:46.933Z,25.40
2023-06-06T16:39:20.429Z,25.40
2023-06-06T16:41:53.702Z,25.30
2023-06-06T16:44:28.339Z,25.40
2023-06-06T16:47:01.708Z,25.40
2023-06-06T16:49:35.205Z,25.40
2023-06-06T16:52:08.857Z,25.40
2023-06-06T16:54:42.093Z,25.40
2023-06-06T16:57:15.659Z,25.40
2023-06-06T16:59:50.824Z,25.40
2023-06-06T17:02:27.995Z,25.40
2023-06-06T17:05:01.785Z,25.30
2023-06-06T17:07:35.099Z,25.40
2023-06-06T17:10:09.578Z,25.40
2023-06-06T17:12:44.493Z,25.40
2023-06-06T17:15:19.135Z,25.40
2023-06-06T17:17:52.478Z,25.40
2023-06-06T17:20:29.159Z,25.40
2023-06-06T17:23:02.435Z,25.30
2023-06-06T17:25:50.547Z,25.30
2023-06-06T17:28:24.837Z,25.40
2023-06-06T17:30:59.794Z,25.30
2023-06-06T17:33:33.358Z,25.30
2023-06-06T17:36:07.674Z,25.40
2023-06-06T17:38:40.992Z,25.40
2023-06-06T17:41:14.250Z,25.30
2023-06-06T17:43:47.643Z,25.40
2023-06-06T17:46:22.588Z,25.40
2023-06-06T17:49:02.979Z,25.40
2023-06-06T17:51:36.951Z,25.40
2023-06-06T17:54:10.278Z,25.40
2023-06-06T17:56:44.002Z,25.50
2023-06-06T17:59:17.596Z,25.50
2023-06-06T18:01:52.322Z,25.50
2023-06-06T18:04:25.700Z,25.50
2023-06-06T18:06:59.040Z,25.50
2023-06-06T18:09:32.268Z,25.50
2023-06-06T18:12:06.687Z,25.50
2023-06-06T18:14:40.015Z,25.60
2023-06-06T18:17:14.644Z,25.60
2023-06-06T18:19:47.959Z,25.60
2023-06-06T18:22:21.282Z,25.50
2023-06-06T18:24:54.642Z,25.60
2023-06-06T18:27:27.891Z,25.60
2023-06-06T18:30:01.946Z,25.60
2023-06-06T18:32:37.383Z,25.60
2023-06-06T18:35:11.238Z,25.50
2023-06-06T18:37:46.575Z,25.60
2023-06-06T18:40:21.377Z,25.50
2023-06-06T18:42:55.090Z,25.50
2023-06-06T18:45:28.363Z,25.50
2023-06-06T18:48:04.111Z,25.50
2023-06-06T18:50:37.530Z,25.50
2023-06-06T18:53:10.876Z,25.50
2023-06-06T18:55:44.160Z,25.50
2023-06-06T18:58:17.458Z,25.50
2023-06-06T19:00:50.926Z,25.50
2023-06-06T19:03:25.795Z,25.50
2023-06-06T19:05:59.280Z,25.50
2023-06-06T19:08:33.838Z,25.50
2023-06-06T19:11:08.082Z,25.50
2023-06-06T19:13:41.365Z,25.50
2023-06-06T19:16:14.661Z,25.50
2023-06-06T19:18:49.980Z,25.50
2023-06-06T19:21:23.254Z,25.50
2023-06-06T19:23:56.629Z,25.50
2023-06-06T19:26:29.920Z,25.50
2023-06-06T19:29:03.283Z,25.40
2023-06-06T19:31:39.200Z,25.50
2023-06-06T19:34:13.990Z,25.50
2023-06-06T19:36:47.252Z,25.50
2023-06-06T19:39:20.779Z,25.40
2023-06-06T19:41:54.037Z,25.40
2023-06-06T19:44:27.268Z,25.50
2023-06-06T19:47:00.500Z,25.40
2023-06-06T19:49:35.556Z,25.40
2023-06-06T19:52:10.554Z,25.40
2023-06-06T19:54:43.888Z,25.40
2023-06-06T19:57:17.501Z,25.40
2023-06-06T19:59:50.832Z,25.50
2023-06-06T20:02:25.228Z,25.40
2023-06-06T20:05:00.027Z,25.40
2023-06-06T20:07:33.300Z,25.40
2023-06-06T20:10:08.087Z,25.40
2023-06-06T20:12:42.189Z,25.40
2023-06-06T20:15:16.011Z,25.40
2023-06-06T20:17:49.381Z,25.40
2023-06-06T20:20:24.047Z,25.40
2023-06-06T20:22:57.423Z,25.40
2023-06-06T20:25:30.714Z,25.40
2023-06-06T20:28:06.686Z,25.40
2023-06-06T20:30:48.482Z,25.40
2023-06-06T20:33:22.137Z,25.40
2023-06-06T20:35:59.053Z,25.40
2023-06-06T20:38:32.415Z,25.40
2023-06-06T20:41:05.795Z,25.40
2023-06-06T20:43:39.100Z,25.40
2023-06-06T20:46:12.419Z,25.40
2023-06-06T20:48:45.724Z,25.40
2023-06-06T20:51:20.381Z,25.40
2023-06-06T20:53:53.702Z,25.50
2023-06-06T20:56:27.639Z,25.50
2023-06-06T20:59:01.871Z,25.50
2023-06-06T21:01:35.211Z,25.50
2023-06-06T21:04:08.644Z,25.50
2023-06-06T21:06:43.349Z,25.50
2023-06-06T21:09:18.726Z,25.50
2023-06-06T21:11:54.489Z,25.50
2023-06-06T21:14:29.907Z,25.50
2023-06-06T21:17:04.995Z,25.50
2023-06-06T21:19:38.377Z,25.60
2023-06-06T21:22:13.072Z,25.50
2023-06-06T21:24:46.380Z,25.50
2023-06-06T21:27:22.204Z,25.60
2023-06-06T21:29:55.657Z,25.60
2023-06-06T21:32:28.977Z,25.50
2023-06-06T21:35:02.284Z,25.60
2023-06-06T21:37:36.983Z,25.50
2023-06-06T21:40:11.812Z,25.50
2023-06-06T21:42:47.643Z,25.60
2023-06-06T21:45:21.061Z,25.60
2023-06-06T21:47:54.330Z,25.60
2023-06-06T21:50:27.772Z,25.60
2023-06-06T21:53:02.382Z,25.50
2023-06-06T21:55:35.659Z,25.60
2023-06-06T21:58:08.961Z,25.60
2023-06-06T22:00:42.387Z,25.60
2023-06-06T22:03:15.693Z,25.60
2023-06-06T22:05:49.026Z,25.60
2023-06-06T22:08:23.616Z,25.60
2023-06-06T22:10:57.130Z,25.60
2023-06-06T22:13:30.377Z,25.60
2023-06-06T22:16:04.378Z,25.60
2023-06-06T22:18:39.098Z,25.60
2023-06-06T22:21:12.386Z,25.60
2023-06-06T22:23:47.075Z,25.60
2023-06-06T22:26:20.467Z,25.60
2023-06-06T22:28:53.793Z,25.60
2023-06-06T22:31:27.067Z,25.70
2023-06-06T22:34:00.391Z,25.60
2023-06-06T22:36:33.611Z,25.60
2023-06-06T22:39:09.560Z,25.60
2023-06-06T22:41:42.892Z,25.60
2023-06-06T22:44:16.199Z,25.60
2023-06-06T22:46:49.416Z,25.60
2023-06-06T22:49:22.676Z,25.60
2023-06-06T22:51:55.928Z,25.70
2023-06-06T22:54:30.524Z,25.70
2023-06-06T22:57:03.800Z,25.70
2023-06-06T22:59:37.111Z,25.60
2023-06-06T23:02:10.431Z,25.70
2023-06-06T23:04:43.689Z,25.70
2023-06-06T23:07:17.040Z,25.70
2023-06-06T23:09:51.613Z,25.70
2023-06-06T23:12:24.933Z,25.60
2023-06-06T23:14:59.396Z,25.60
2023-06-06T23:17:34.655Z,25.60
2023-06-06T23:20:12.897Z,25.70
2023-06-06T23:22:47.425Z,25.70
2023-06-06T23:25:22.290Z,25.70
2023-06-06T23:27:55.946Z,25.70
2023-06-06T23:30:29.242Z,25.70
2023-06-06T23:33:02.566Z,25.70
2023-06-06T23:35:35.898Z,25.70
2023-06-06T23:38:09.532Z,25.70
2023-06-06T23:40:44.214Z,25.70
2023-06-06T23:43:17.427Z,25.70
2023-06-06T23:45:50.771Z,25.70
2023-06-06T23:48:24.040Z,25.70
2023-06-06T23:50:57.287Z,25.70
2023-06-06T23:53:30.634Z,25.70
2023-06-06T23:56:05.296Z,25.70
2023-06-06T23:58:38.548Z,25.70
